createdAt,value
2022-11-13T00:01:18.406Z,7.05
2022-11-13T00:03:45.388Z,7.01
2022-11-13T00:06:13.305Z,6.90
2022-11-13T00:08:40.109Z,6.97
2022-11-13T00:11:12.696Z,6.99
2022-11-13T00:13:39.467Z,6.88
2022-11-13T00:16:09.732Z,6.79
2022-11-13T00:18:36.959Z,6.86
2022-11-13T00:21:16.856Z,6.82
2022-11-13T00:23:43.683Z,6.91
2022-11-13T00:26:13.920Z,6.94
2022-11-13T00:28:40.421Z,6.97
2022-11-13T00:31:08.984Z,6.94
2022-11-13T00:34:02.374Z,6.88
2022-11-13T00:36:26.548Z,6.89
2022-11-13T00:38:54.080Z,6.85
2022-11-13T00:41:21.079Z,6.79
2022-11-13T00:43:47.552Z,6.79
2022-11-13T00:46:15.589Z,6.86
2022-11-13T00:48:42.095Z,6.85
2022-11-13T00:51:08.675Z,6.84
2022-11-13T00:53:35.312Z,6.63
2022-11-13T00:56:01.843Z,6.71
2022-11-13T00:58:28.797Z,6.82
2022-11-13T01:00:55.926Z,6.79
2022-11-13T01:03:22.390Z,6.81
2022-11-13T01:05:48.950Z,6.72
2022-11-13T01:08:16.379Z,6.68
2022-11-13T01:10:53.116Z,6.77
2022-11-13T01:13:20.698Z,6.82
2022-11-13T01:15:47.243Z,6.78
2022-11-13T01:18:13.891Z,6.78
2022-11-13T01:20:40.640Z,6.76
2022-11-13T01:23:07.179Z,6.73
2022-11-13T01:25:33.926Z,6.73
2022-11-13T01:28:03.746Z,6.69
2022-11-13T01:30:30.281Z,6.69
2022-11-13T01:32:56.720Z,6.65
2022-11-13T01:35:23.265Z,6.64
2022-11-13T01:37:49.711Z,6.65
2022-11-13T01:40:16.508Z,6.55
2022-11-13T01:42:46.131Z,6.51
2022-11-13T01:45:50.299Z,6.52
2022-11-13T01:48:16.780Z,6.28
2022-11-13T01:50:43.314Z,6.34
2022-11-13T01:53:10.104Z,6.22
2022-11-13T01:55:36.836Z,6.23
2022-11-13T01:58:06.050Z,6.23
2022-11-13T02:00:32.585Z,6.12
2022-11-13T02:02:59.138Z,6.11
2022-11-13T02:05:25.630Z,6.19
2022-11-13T02:07:52.276Z,6.15
2022-11-13T02:10:18.817Z,6.15
2022-11-13T02:12:50.235Z,6.17
2022-11-13T02:15:18.744Z,6.18
2022-11-13T02:17:50.298Z,6.11
2022-11-13T02:20:25.444Z,6.17
2022-11-13T02:22:54.659Z,6.17
2022-11-13T02:25:22.176Z,6.11
2022-11-13T02:27:50.512Z,5.92
2022-11-13T02:30:26.486Z,5.81
2022-11-13T02:32:55.048Z,5.92
2022-11-13T02:35:26.563Z,5.95
2022-11-13T02:37:54.839Z,6.03
2022-11-13T02:40:21.484Z,6.05
2022-11-13T02:42:47.939Z,5.79
2022-11-13T02:45:14.606Z,5.80
2022-11-13T02:47:41.101Z,5.70
2022-11-13T02:50:10.220Z,5.59
2022-11-13T02:52:37.000Z,5.67
2022-11-13T02:55:04.458Z,5.68
2022-11-13T02:57:31.088Z,5.70
2022-11-13T02:59:57.770Z,5.82
2022-11-13T03:02:24.305Z,5.63
2022-11-13T03:05:11.396Z,5.48
2022-11-13T03:07:37.324Z,5.64
2022-11-13T03:10:04.209Z,5.67
2022-11-13T03:12:30.833Z,5.64
2022-11-13T03:14:57.361Z,5.69
2022-11-13T03:17:23.828Z,5.62
2022-11-13T03:19:50.438Z,5.68
2022-11-13T03:22:16.970Z,5.70
2022-11-13T03:24:46.816Z,5.73
2022-11-13T03:27:13.268Z,5.40
2022-11-13T03:29:39.770Z,5.40
2022-11-13T03:32:06.405Z,5.48
2022-11-13T03:34:32.875Z,5.28
2022-11-13T03:36:59.360Z,4.99
2022-11-13T03:39:26.311Z,5.25
2022-11-13T03:41:52.809Z,5.35
2022-11-13T03:44:19.308Z,5.41
2022-11-13T03:46:45.845Z,5.45
2022-11-13T03:49:12.467Z,5.43
2022-11-13T03:51:38.975Z,5.48
2022-11-13T03:54:05.518Z,5.51
2022-11-13T03:56:32.092Z,5.51
2022-11-13T03:58:58.574Z,5.48
2022-11-13T04:01:25.146Z,5.45
2022-11-13T04:03:51.663Z,5.49
2022-11-13T04:06:18.165Z,5.38
2022-11-13T04:08:44.623Z,5.37
2022-11-13T04:11:12.898Z,5.16
2022-11-13T04:13:39.609Z,5.21
2022-11-13T04:16:06.316Z,5.32
2022-11-13T04:18:33.107Z,5.36
2022-11-13T04:21:04.938Z,5.49
2022-11-13T04:23:31.592Z,5.51
2022-11-13T04:25:58.333Z,5.49
2022-11-13T04:28:24.975Z,5.24
2022-11-13T04:30:54.586Z,5.26
2022-11-13T04:33:21.409Z,5.34
2022-11-13T04:35:48.504Z,5.37
2022-11-13T04:38:15.607Z,5.43
2022-11-13T04:40:43.100Z,5.45
2022-11-13T04:43:09.774Z,5.46
2022-11-13T04:45:36.953Z,5.46
2022-11-13T04:48:03.721Z,5.44
2022-11-13T04:50:30.340Z,5.54
2022-11-13T04:52:56.899Z,5.52
2022-11-13T04:55:23.441Z,5.49
2022-11-13T04:57:51.703Z,5.47
2022-11-13T05:00:18.512Z,5.43
2022-11-13T05:02:45.015Z,5.42
2022-11-13T05:05:11.506Z,5.45
2022-11-13T05:07:38.077Z,5.45
2022-11-13T05:10:05.553Z,5.37
2022-11-13T05:12:31.985Z,5.18
2022-11-13T05:14:58.517Z,5.23
2022-11-13T05:17:24.959Z,5.28
2022-11-13T05:19:51.536Z,5.36
2022-11-13T05:22:17.985Z,5.27
2022-11-13T05:24:44.596Z,5.27
2022-11-13T05:27:16.010Z,5.23
2022-11-13T05:29:43.759Z,5.08
2022-11-13T05:32:10.297Z,5.05
2022-11-13T05:34:36.989Z,5.02
2022-11-13T05:37:03.475Z,5.01
2022-11-13T05:39:29.964Z,4.96
2022-11-13T05:41:56.468Z,5.06
2022-11-13T05:44:22.965Z,5.16
2022-11-13T05:46:49.478Z,5.00
2022-11-13T05:49:15.967Z,5.07
2022-11-13T05:51:42.478Z,5.03
2022-11-13T05:54:08.937Z,5.08
2022-11-13T05:56:36.704Z,5.12
2022-11-13T05:59:04.432Z,5.17
2022-11-13T06:01:37.007Z,5.23
2022-11-13T06:04:04.583Z,5.17
2022-11-13T06:06:31.704Z,4.85
2022-11-13T06:09:00.646Z,4.54
2022-11-13T06:11:29.241Z,4.63
2022-11-13T06:13:57.222Z,4.78
2022-11-13T06:16:27.033Z,4.68
2022-11-13T06:18:58.942Z,4.52
2022-11-13T06:21:29.756Z,4.45
2022-11-13T06:24:00.624Z,4.47
2022-11-13T06:26:33.174Z,4.62
2022-11-13T06:29:01.485Z,4.67
2022-11-13T06:31:30.993Z,4.68
2022-11-13T06:34:00.429Z,4.70
2022-11-13T06:36:30.109Z,4.78
2022-11-13T06:38:56.807Z,4.81
2022-11-13T06:41:26.014Z,4.81
2022-11-13T06:43:53.317Z,4.74
2022-11-13T06:46:23.451Z,4.76
2022-11-13T06:48:50.694Z,4.82
2022-11-13T06:51:27.160Z,4.71
2022-11-13T06:53:54.106Z,4.60
2022-11-13T06:56:21.467Z,4.32
2022-11-13T06:58:47.981Z,4.02
2022-11-13T07:01:20.902Z,3.93
2022-11-13T07:03:47.710Z,3.89
2022-11-13T07:06:24.444Z,4.12
2022-11-13T07:08:51.754Z,4.28
2022-11-13T07:11:21.172Z,4.44
2022-11-13T07:13:48.292Z,4.43
2022-11-13T07:16:17.803Z,4.38
2022-11-13T07:18:50.376Z,4.26
2022-11-13T07:21:17.254Z,4.24
2022-11-13T07:23:43.821Z,4.54
2022-11-13T07:26:13.736Z,4.74
2022-11-13T07:28:40.567Z,4.56
2022-11-13T07:31:07.539Z,4.43
2022-11-13T07:33:34.582Z,4.44
2022-11-13T07:36:01.350Z,4.35
2022-11-13T07:38:28.168Z,4.42
2022-11-13T07:40:54.949Z,4.57
2022-11-13T07:43:21.491Z,4.67
2022-11-13T07:45:54.281Z,4.61
2022-11-13T07:48:24.497Z,4.60
2022-11-13T07:50:51.476Z,4.69
2022-11-13T07:53:19.282Z,4.84
2022-11-13T07:55:46.326Z,4.92
2022-11-13T07:58:12.891Z,5.13
2022-11-13T08:00:40.158Z,5.09
2022-11-13T08:03:08.925Z,4.91
2022-11-13T08:05:35.530Z,4.85
2022-11-13T08:08:02.078Z,4.93
2022-11-13T08:10:28.905Z,5.01
2022-11-13T08:13:04.154Z,5.07
2022-11-13T08:15:31.713Z,5.13
2022-11-13T08:17:59.891Z,5.18
2022-11-13T08:20:28.023Z,5.21
2022-11-13T08:23:02.269Z,5.27
2022-11-13T08:25:29.956Z,5.33
2022-11-13T08:27:57.340Z,5.38
2022-11-13T08:30:25.901Z,5.41
2022-11-13T08:32:52.828Z,5.28
2022-11-13T08:35:21.371Z,5.32
2022-11-13T08:37:50.630Z,5.41
2022-11-13T08:40:20.022Z,5.53
2022-11-13T08:42:46.523Z,5.70
2022-11-13T08:45:13.132Z,5.71
2022-11-13T08:47:39.659Z,5.75
2022-11-13T08:50:06.787Z,5.91
2022-11-13T08:52:33.351Z,5.87
2022-11-13T08:54:59.879Z,6.10
2022-11-13T08:57:28.898Z,6.21
2022-11-13T08:59:55.404Z,6.39
2022-11-13T09:02:21.924Z,6.81
2022-11-13T09:04:48.392Z,6.85
2022-11-13T09:07:15.087Z,6.73
2022-11-13T09:09:41.563Z,6.68
2022-11-13T09:12:08.217Z,6.63
2022-11-13T09:14:36.144Z,6.64
2022-11-13T09:17:03.035Z,6.66
2022-11-13T09:19:29.542Z,6.63
2022-11-13T09:21:56.003Z,6.74
2022-11-13T09:24:22.539Z,6.73
2022-11-13T09:26:49.035Z,6.73
2022-11-13T09:29:15.550Z,6.79
2022-11-13T09:31:42.247Z,6.86
2022-11-13T09:34:08.974Z,6.98
2022-11-13T09:36:36.139Z,7.02
2022-11-13T09:39:04.345Z,7.09
2022-11-13T09:41:37.649Z,7.04
2022-11-13T09:44:13.554Z,7.22
2022-11-13T09:46:49.354Z,7.22
2022-11-13T09:49:21.621Z,7.29
2022-11-13T09:51:52.813Z,7.28
2022-11-13T09:54:20.318Z,7.33
2022-11-13T09:56:51.245Z,7.45
2022-11-13T10:00:10.592Z,7.59
2022-11-13T10:02:44.404Z,7.70
2022-11-13T10:05:41.191Z,7.63
2022-11-13T10:08:16.578Z,7.68
2022-11-13T10:11:07.072Z,7.79
2022-11-13T10:13:40.414Z,7.78
2022-11-13T10:16:38.484Z,7.82
2022-11-13T10:19:28.252Z,7.81
2022-11-13T10:22:26.512Z,7.94
2022-11-13T10:24:52.210Z,7.98
2022-11-13T10:27:19.014Z,8.06
2022-11-13T10:29:49.048Z,8.02
2022-11-13T10:32:22.102Z,8.08
2022-11-13T10:34:54.285Z,7.96
2022-11-13T10:37:45.112Z,7.95
2022-11-13T10:40:11.809Z,7.91
2022-11-13T10:42:41.225Z,7.89
2022-11-13T10:45:20.155Z,7.78
2022-11-13T10:48:04.087Z,7.74
2022-11-13T10:50:32.528Z,7.94
2022-11-13T10:53:02.431Z,8.02
2022-11-13T10:55:37.468Z,8.09
2022-11-13T10:58:13.091Z,8.02
2022-11-13T11:00:41.469Z,8.14
2022-11-13T11:03:14.004Z,8.25
2022-11-13T11:06:01.091Z,8.16
2022-11-13T11:08:37.136Z,8.11
2022-11-13T11:11:33.409Z,8.11
2022-11-13T11:14:24.361Z,7.94
2022-11-13T11:16:52.754Z,7.86
2022-11-13T11:19:24.915Z,7.89
2022-11-13T11:21:57.349Z,7.84
2022-11-13T11:24:31.037Z,7.89
2022-11-13T11:27:04.910Z,7.97
2022-11-13T11:29:46.324Z,7.89
2022-11-13T11:32:34.202Z,7.82
2022-11-13T11:35:12.088Z,7.87
2022-11-13T11:37:50.396Z,7.83
2022-11-13T11:40:21.940Z,7.76
2022-11-13T11:43:00.870Z,7.65
2022-11-13T11:45:31.583Z,7.67
2022-11-13T11:47:59.483Z,7.64
2022-11-13T11:50:54.597Z,7.53
2022-11-13T11:53:50.329Z,7.42
2022-11-13T11:56:34.632Z,7.41
2022-11-13T11:59:22.998Z,7.40
2022-11-13T12:02:08.178Z,7.12
2022-11-13T12:05:10.400Z,6.83
2022-11-13T12:07:48.948Z,6.81
2022-11-13T12:10:57.040Z,6.67
2022-11-13T12:13:31.547Z,6.62
2022-11-13T12:16:13.120Z,6.49
2022-11-13T12:18:57.646Z,6.46
2022-11-13T12:22:07.083Z,6.43
2022-11-13T12:24:39.412Z,6.46
2022-11-13T12:27:25.765Z,6.22
2022-11-13T12:30:10.913Z,6.28
2022-11-13T12:32:43.391Z,6.34
2022-11-13T12:35:21.039Z,6.26
2022-11-13T12:37:51.593Z,6.18
2022-11-13T12:40:50.583Z,6.26
2022-11-13T12:43:44.735Z,6.12
2022-11-13T12:46:12.657Z,6.12
2022-11-13T12:48:45.040Z,6.09
2022-11-13T12:51:14.609Z,6.10
2022-11-13T12:53:52.309Z,6.02
2022-11-13T12:56:24.774Z,6.01
2022-11-13T12:59:28.652Z,6.04
2022-11-13T13:01:49.342Z,5.99
2022-11-13T13:05:13.324Z,5.87
2022-11-13T13:07:45.900Z,5.73
2022-11-13T13:10:41.195Z,5.81
2022-11-13T13:13:31.711Z,5.64
2022-11-13T13:16:07.349Z,5.65
2022-11-13T13:18:36.787Z,5.77
2022-11-13T13:21:04.215Z,5.70
2022-11-13T13:23:39.791Z,5.73
2022-11-13T13:26:15.377Z,5.57
2022-11-13T13:29:01.051Z,5.48
2022-11-13T13:31:30.430Z,5.44
2022-11-13T13:34:21.212Z,5.34
2022-11-13T13:37:01.461Z,5.34
2022-11-13T13:39:52.282Z,5.35
2022-11-13T13:42:43.678Z,5.24
2022-11-13T13:45:25.936Z,5.31
2022-11-13T13:47:54.887Z,5.23
2022-11-13T13:50:31.632Z,5.13
2022-11-13T13:52:59.659Z,5.19
2022-11-13T13:55:33.960Z,5.23
2022-11-13T13:58:05.683Z,5.20
2022-11-13T14:00:32.770Z,5.26
2022-11-13T14:02:59.342Z,5.26
2022-11-13T14:05:35.014Z,5.20
2022-11-13T14:08:07.387Z,5.16
2022-11-13T14:10:36.273Z,5.21
2022-11-13T14:13:03.945Z,5.18
2022-11-13T14:15:32.655Z,5.26
2022-11-13T14:18:05.426Z,5.31
2022-11-13T14:20:43.803Z,5.35
2022-11-13T14:23:23.031Z,5.32
2022-11-13T14:25:50.256Z,5.36
2022-11-13T14:28:22.702Z,5.25
2022-11-13T14:31:07.949Z,5.31
2022-11-13T14:33:40.694Z,5.21
2022-11-13T14:36:07.506Z,5.27
2022-11-13T14:38:36.929Z,5.32
2022-11-13T14:41:04.480Z,5.37
2022-11-13T14:43:33.146Z,5.28
2022-11-13T14:46:02.079Z,5.19
2022-11-13T14:48:31.380Z,5.20
2022-11-13T14:51:05.987Z,5.18
2022-11-13T14:53:35.666Z,5.20
2022-11-13T14:56:04.862Z,5.21
2022-11-13T14:58:36.737Z,5.18
2022-11-13T15:01:15.526Z,5.23
2022-11-13T15:03:43.766Z,5.27
2022-11-13T15:06:26.993Z,5.28
2022-11-13T15:08:58.241Z,5.24
2022-11-13T15:11:26.500Z,5.15
2022-11-13T15:13:53.110Z,5.11
2022-11-13T15:16:23.569Z,5.07
2022-11-13T15:18:54.216Z,5.00
2022-11-13T15:21:20.932Z,5.02
2022-11-13T15:23:47.432Z,5.02
2022-11-13T15:26:13.950Z,5.02
2022-11-13T15:28:40.467Z,5.01
2022-11-13T15:31:20.657Z,5.03
2022-11-13T15:33:48.046Z,5.09
2022-11-13T15:36:14.865Z,5.13
2022-11-13T15:38:41.434Z,5.14
2022-11-13T15:41:12.806Z,5.17
2022-11-13T15:43:45.018Z,5.16
2022-11-13T15:46:17.351Z,5.09
2022-11-13T15:48:44.971Z,5.04
2022-11-13T15:51:33.727Z,5.01
2022-11-13T15:54:03.711Z,4.91
2022-11-13T15:56:31.485Z,4.98
2022-11-13T15:58:57.988Z,5.05
2022-11-13T16:01:24.620Z,4.99
2022-11-13T16:03:51.707Z,5.02
2022-11-13T16:06:21.563Z,5.04
2022-11-13T16:08:48.606Z,4.98
2022-11-13T16:11:17.009Z,4.96
2022-11-13T16:13:43.780Z,4.98
2022-11-13T16:16:16.792Z,5.08
2022-11-13T16:18:43.293Z,5.13
2022-11-13T16:21:14.159Z,5.06
2022-11-13T16:23:40.755Z,5.05
2022-11-13T16:26:18.035Z,4.98
2022-11-13T16:29:07.650Z,4.95
2022-11-13T16:31:31.209Z,4.80
2022-11-13T16:33:57.640Z,4.82
2022-11-13T16:36:27.247Z,4.85
2022-11-13T16:38:53.712Z,4.83
2022-11-13T16:41:20.218Z,4.72
2022-11-13T16:43:46.676Z,4.77
2022-11-13T16:46:21.036Z,4.85
2022-11-13T16:48:48.014Z,4.86
2022-11-13T16:51:17.106Z,4.87
2022-11-13T16:53:43.920Z,4.93
2022-11-13T16:56:16.274Z,4.95
2022-11-13T16:58:42.962Z,4.86
2022-11-13T17:01:19.959Z,4.84
2022-11-13T17:03:46.516Z,4.82
2022-11-13T17:06:21.010Z,4.73
2022-11-13T17:08:51.816Z,4.76
2022-11-13T17:11:18.889Z,4.80
2022-11-13T17:14:02.162Z,4.83
2022-11-13T17:16:30.437Z,4.86
2022-11-13T17:18:58.133Z,4.83
2022-11-13T17:21:28.328Z,4.89
2022-11-13T17:24:02.472Z,4.83
2022-11-13T17:26:30.975Z,4.90
2022-11-13T17:28:59.866Z,4.97
2022-11-13T17:31:26.768Z,5.05
2022-11-13T17:33:54.094Z,4.99
2022-11-13T17:36:21.392Z,4.89
2022-11-13T17:38:48.364Z,4.90
2022-11-13T17:41:16.496Z,4.87
2022-11-13T17:43:43.418Z,4.96
2022-11-13T17:46:15.386Z,5.11
2022-11-13T17:48:43.109Z,5.06
2022-11-13T17:51:14.792Z,5.01
2022-11-13T17:53:41.649Z,5.06
2022-11-13T17:56:11.663Z,5.07
2022-11-13T17:58:39.903Z,5.09
2022-11-13T18:01:10.286Z,5.02
2022-11-13T18:03:36.901Z,5.01
2022-11-13T18:06:08.443Z,4.99
2022-11-13T18:08:37.626Z,5.05
2022-11-13T18:11:09.622Z,4.96
2022-11-13T18:13:36.278Z,4.98
2022-11-13T18:16:10.287Z,5.07
2022-11-13T18:18:36.947Z,5.04
2022-11-13T18:21:23.406Z,4.99
2022-11-13T18:24:03.957Z,5.05
2022-11-13T18:26:31.644Z,5.09
2022-11-13T18:28:58.680Z,5.10
2022-11-13T18:31:25.349Z,5.03
2022-11-13T18:33:52.760Z,5.03
2022-11-13T18:36:19.651Z,5.03
2022-11-13T18:38:46.441Z,5.04
2022-11-13T18:41:15.757Z,5.08
2022-11-13T18:43:44.242Z,5.09
2022-11-13T18:46:12.235Z,5.09
2022-11-13T18:48:40.404Z,5.02
2022-11-13T18:51:15.568Z,5.04
2022-11-13T18:53:45.506Z,5.06
2022-11-13T18:56:15.575Z,4.98
2022-11-13T18:58:43.757Z,4.93
2022-11-13T19:01:22.349Z,4.87
2022-11-13T19:04:16.150Z,4.93
2022-11-13T19:06:38.307Z,4.96
2022-11-13T19:09:08.073Z,5.03
2022-11-13T19:11:34.564Z,5.01
2022-11-13T19:14:01.040Z,5.05
2022-11-13T19:16:33.172Z,5.04
2022-11-13T19:19:03.579Z,5.05
2022-11-13T19:21:31.834Z,5.07
2022-11-13T19:23:58.698Z,5.08
2022-11-13T19:26:26.129Z,5.02
2022-11-13T19:28:53.938Z,4.85
2022-11-13T19:31:22.912Z,4.71
2022-11-13T19:34:00.544Z,4.85
2022-11-13T19:36:28.631Z,4.91
2022-11-13T19:38:56.330Z,4.88
2022-11-13T19:41:23.930Z,4.95
2022-11-13T19:43:50.512Z,4.91
2022-11-13T19:46:18.501Z,4.90
2022-11-13T19:48:48.611Z,4.92
2022-11-13T19:51:17.976Z,4.87
2022-11-13T19:53:47.581Z,4.76
2022-11-13T19:56:16.389Z,4.66
2022-11-13T19:58:44.476Z,4.72
2022-11-13T20:01:13.742Z,4.72
2022-11-13T20:03:40.380Z,4.80
2022-11-13T20:06:08.064Z,4.82
2022-11-13T20:08:41.138Z,4.70
2022-11-13T20:11:10.972Z,4.73
2022-11-13T20:13:38.766Z,4.72
2022-11-13T20:16:06.765Z,4.75
2022-11-13T20:18:33.320Z,4.75
2022-11-13T20:21:00.367Z,4.74
2022-11-13T20:23:30.479Z,4.74
2022-11-13T20:26:05.300Z,4.78
2022-11-13T20:28:32.299Z,4.80
2022-11-13T20:31:16.469Z,4.83
2022-11-13T20:33:43.569Z,4.81
2022-11-13T20:36:10.457Z,4.78
2022-11-13T20:38:37.435Z,4.81
2022-11-13T20:41:05.045Z,4.83
2022-11-13T20:43:31.534Z,4.80
2022-11-13T20:46:09.201Z,4.79
2022-11-13T20:48:36.284Z,4.87
2022-11-13T20:51:10.868Z,4.82
2022-11-13T20:53:37.593Z,4.67
2022-11-13T20:56:04.552Z,4.54
2022-11-13T20:58:31.789Z,4.67
2022-11-13T21:01:07.001Z,4.62
2022-11-13T21:03:39.901Z,4.74
2022-11-13T21:06:10.004Z,4.86
2022-11-13T21:08:36.614Z,4.93
2022-11-13T21:11:06.015Z,4.93
2022-11-13T21:13:33.249Z,4.94
2022-11-13T21:15:59.787Z,4.99
2022-11-13T21:18:26.596Z,5.06
2022-11-13T21:20:53.332Z,5.09
2022-11-13T21:23:19.833Z,5.09
2022-11-13T21:25:46.358Z,5.09
2022-11-13T21:28:12.849Z,5.11
2022-11-13T21:30:39.315Z,5.13
2022-11-13T21:33:05.796Z,5.20
2022-11-13T21:35:32.324Z,5.20
2022-11-13T21:37:58.892Z,5.18
2022-11-13T21:40:25.363Z,5.19
2022-11-13T21:42:51.871Z,5.19
2022-11-13T21:45:18.341Z,5.25
2022-11-13T21:47:44.854Z,5.26
2022-11-13T21:50:11.384Z,5.26
2022-11-13T21:52:37.912Z,5.26
2022-11-13T21:55:04.696Z,5.33
2022-11-13T21:57:31.377Z,5.34
2022-11-13T21:59:57.863Z,5.37
2022-11-13T22:02:24.464Z,5.44
2022-11-13T22:04:50.991Z,5.47
2022-11-13T22:07:19.433Z,5.48
2022-11-13T22:09:46.462Z,5.48
2022-11-13T22:12:18.009Z,5.47
2022-11-13T22:14:47.428Z,5.49
2022-11-13T22:17:13.866Z,5.45
2022-11-13T22:19:40.429Z,5.40
2022-11-13T22:22:06.907Z,5.28
2022-11-13T22:24:33.458Z,5.28
2022-11-13T22:27:02.872Z,5.36
2022-11-13T22:29:29.380Z,5.44
2022-11-13T22:31:55.845Z,5.48
2022-11-13T22:34:22.346Z,5.55
2022-11-13T22:36:48.807Z,5.56
2022-11-13T22:39:15.385Z,5.56
2022-11-13T22:41:41.828Z,5.45
2022-11-13T22:44:12.462Z,5.37
2022-11-13T22:46:39.110Z,5.41
2022-11-13T22:49:09.308Z,5.44
2022-11-13T22:51:38.464Z,5.44
2022-11-13T22:54:14.921Z,5.36
2022-11-13T22:56:44.291Z,5.41
2022-11-13T22:59:12.281Z,5.33
2022-11-13T23:01:40.281Z,5.41
2022-11-13T23:04:12.010Z,5.38
2022-11-13T23:06:38.616Z,5.21
2022-11-13T23:09:06.448Z,5.15
2022-11-13T23:11:40.313Z,5.07
2022-11-13T23:14:13.719Z,5.08
2022-11-13T23:16:40.282Z,5.15
2022-11-13T23:19:06.981Z,5.19
2022-11-13T23:21:33.678Z,5.20
2022-11-13T23:24:03.763Z,5.18
2022-11-13T23:26:30.318Z,5.15
2022-11-13T23:28:57.182Z,5.05
2022-11-13T23:31:24.386Z,5.12
2022-11-13T23:33:58.280Z,5.11
2022-11-13T23:36:24.814Z,5.06
2022-11-13T23:38:51.267Z,5.06
2022-11-13T23:41:17.768Z,5.07
2022-11-13T23:46:30.683Z,5.27
2022-11-13T23:48:57.255Z,5.33
2022-11-13T23:51:23.747Z,5.29
2022-11-13T23:53:50.183Z,5.23
2022-11-13T23:56:18.603Z,5.17
2022-11-13T23:58:45.081Z,5.20
